Terminal Aerodrome Forecast
Issued by NWS El Paso, TX

Home | Current Version | Previous Version | Text Only | Print | Product List | Glossary On
Versions: 1 2 3 4 5 6 7 8 9 10 11 12 13 14 15 16
000
FTUS44 KEPZ 181132
TAFELP
TAF
KELP 181132Z 1812/1912 VRB05KT P6SM SCT100
      TEMPO 1812/1814 1SM BR VV004
     FM181800 25013KT P6SM SCT060
     FM190300 26011KT P6SM SCT100=

USA.gov is the U.S. government's official web portal to all federal, state and local government web resources and services.